Maria Desgagnes — VCWL — position and weather

sailwx.info

Track history (hours):
 
Tides and Currents Weather Stations Pressure Air Temp Water Temp Dewpoint Dewpoint Depression Visibility Wind Speed Wind Dir Waves Ship Positions

Maria Desgagnes

Last reported at 2017-Apr-27 12:00 UTC. Time now 2017-Apr-27 14:59 UTC.
Position N 47°36' W 070°06'.

Length 120 m; draft 7.9 m.

Type: Ship. MMSI: 316285000.

Wind from 050 at 15 knots

Barometer 1016.9 mb
Air temperature 3.9 ° C
Dewpoint 3.8 ° C
Water temperature 3.6 ° C

Date/timePositionNaut miles runAvg speedWind from/ knotsBaromVisibWave heightAir tempDewpointWater temp
2017-Apr-27 12:00N 47°36' W 070°06'4113.7 050 / 151016.9 3.9 3.8 3.6
2017-Apr-27 09:00N 48°12' W 069°36'4013.3 030 / 271016.2 5.3 5.2 2.6
2017-Apr-27 06:00N 48°36' W 068°48'4013.3 050 / 231017.0 3.6 3.5 3.3
2017-Apr-27 03:00N 48°54' W 067°54'4113.6 060 / 201018.4 2.9 2.8 2.8
2017-Apr-27 00:00N 49°24' W 067°12'3913.1 360 / 121018.8 1.5 1.5 1.4
2017-Apr-26 21:00N 50°00' W 066°48'0 0.0 090 / 21018.0 2.6 2.5
2017-Apr-26 18:00N 50°00' W 066°48'0 0.0 090 / 61018.5 1.6 1.5
2017-Apr-26 15:00N 50°00' W 066°48'0 0.0 070 / 71020.0 1.0 0.9
2017-Apr-26 12:00N 50°00' W 066°48'0 0.0 070 / 61021.5 -0.1-0.3
2017-Apr-26 09:00N 50°00' W 066°48'0 0.0 030 / 61022.2 -1.1-3.3 1.1
2017-Apr-26 06:00N 50°00' W 066°48'0 0.0 030 / 121024.7 -0.8-4.8
2017-Apr-26 03:00N 50°00' W 066°48'0 0.0 050 / 71027.6 -0.1-3.7
2017-Apr-26 00:00N 50°00' W 066°48'0 0.0 070 / 51028.5 -0.0-6.1
2017-Apr-25 21:00N 50°00' W 066°48'20 6.7 190 / 61029.7 0.2-7.6
2017-Apr-25 18:00N 50°06' W 066°18'4214.1 230 / 161030.3 -1.1-8.9 1.1
2017-Apr-25 15:00N 50°06' W 065°12'3812.8 270 / 211030.3 -3.4-11.6 0.7
2017-Apr-25 12:00N 50°06' W 064°12'3511.5 290 / 161028.5 -4.5-14.1 0.3
2017-Apr-25 09:00N 50°06' W 063°18'3110.5 300 / 281023.9 -3.7-14.2 0.1
2017-Apr-25 06:00N 50°00' W 062°30'28 9.2 310 / 251021.7 -2.4-11.7-0.0
2017-Apr-25 03:00N 49°54' W 061°48'17 5.6 300 / 261021.0 -1.3-11.6 0.1
2017-Apr-25 00:00N 49°42' W 061°30'24 8.0 290 / 341018.9 -1.9-10.6 0.4
2017-Apr-24 21:00N 49°36' W 060°54'4113.6 300 / 291015.7 -1.4-7.4 0.3
2017-Apr-24 18:00N 49°24' W 059°54'4013.2 280 / 261014.3 -0.6-6.2 0.2
2017-Apr-24 15:00N 49°18' W 058°54'2212.4 280 / 191014.2 1.5-1.0 1.1
2017-Apr-24 13:12N 49°10' W 058°23'413.5
2017-Apr-24 12:56N 49°08' W 058°18'613.5
2017-Apr-24 12:30N 49°04' W 058°11'612.3
2017-Apr-24 12:00N 48°60' W 058°05'6399.0
2017-Apr-24 12:00N 48°54' W 058°06'510.7 130 / 111014.4 2.7-0.5 2.3
2017-Apr-24 11:30N 48°58' W 058°01'0 0.0
2017-Apr-24 11:00N 48°58' W 058°01'4 1.9
2017-Apr-24 09:00N 48°54' W 058°00'0 0.0 200 / 91014.2 0.5-1.4
2017-Apr-24 06:00N 48°54' W 058°00'0 0.0 250 / 51014.1 0.8-1.8
2017-Apr-24 03:00N 48°54' W 058°00'4 1.4 240 / 51013.3 1.0-1.5
2017-Apr-24 00:11N 48°58' W 058°01'0 0.0
2017-Apr-24 00:00N 48°58' W 058°01'4269.6
2017-Apr-24 00:00N 48°54' W 058°00'4 8.0 320 / 61012.4 1.8 0.1 0.5
2017-Apr-23 23:30N 48°58' W 058°01'0 1.0
2017-Apr-23 23:00N 48°58' W 058°00'5 9.6
2017-Apr-23 22:31N 49°01' W 058°06'4 8.7
2017-Apr-23 22:00N 49°04' W 058°10'713.7
2017-Apr-23 21:31N 49°08' W 058°19'510.0
2017-Apr-23 21:00N 49°12' W 058°24'4013.2 310 / 31011.2 1.3 0.5 1.5
2017-Apr-23 18:00N 48°48' W 059°12'3913.1 350 / 71011.5 1.0 0.6 1.8
2017-Apr-23 15:00N 48°12' W 059°36'4314.3 080 / 41011.8 1.1 1.0 1.7
2017-Apr-23 12:00N 47°30' W 059°48'4214.1 320 / 11012.3 -0.0-0.1 1.6
2017-Apr-23 09:00N 46°48' W 059°54'44 7.3 040 / 61011.8 -0.2-0.3 1.4
2017-Apr-23 03:00N 46°06' W 060°12'0 0.0 150 / 21016.4 1.8-1.1
2017-Apr-23 00:00N 46°06' W 060°12'0 0.0 050 / 21017.7 1.8-0.9
2017-Apr-22 21:00N 46°06' W 060°12'18 6.2 070 / 51018.8 3.0-0.6 4.0
2017-Apr-22 18:00N 46°24' W 060°06'4314.3 030 / 41020.1 1.2 0.1 1.0
2017-Apr-22 15:00N 47°06' W 060°18'4113.8 280 / 11021.8 1.5-0.7 1.3
2017-Apr-22 12:00N 47°42' W 060°48'3812.8 130 / 41022.8 0.9-0.8 0.6
2017-Apr-22 09:00N 48°12' W 061°24'4013.4 090 / 121022.1 0.5-0.4 1.0
2017-Apr-22 06:00N 48°30' W 062°18'4013.2 080 / 111023.1 0.4-0.9 1.5
2017-Apr-22 03:00N 48°54' W 063°06'3612.1 080 / 81024.9 1.7-1.9 1.5
2017-Apr-22 00:00N 49°12' W 063°54'4013.2 080 / 41025.6 0.9-0.3 1.6
2017-Apr-21 21:00N 49°18' W 064°54'4314.5 120 / 141025.0 1.3-1.1 2.3
2017-Apr-21 18:00N 49°24' W 066°00'3712.4 080 / 221024.0 0.3-1.0 1.8
2017-Apr-21 15:00N 49°12' W 066°54'4314.4 060 / 201025.2 0.5-0.4 2.2
2017-Apr-21 12:00N 48°54' W 067°54'3612.1 090 / 161026.1 0.2-0.4 2.4
2017-Apr-21 09:00N 48°36' W 068°42'4013.3 080 / 151025.0 0.5-0.3 2.7
2017-Apr-21 06:00N 48°12' W 069°30'4113.7 040 / 111025.7 0.9-0.3 2.6
2017-Apr-21 03:00N 47°36' W 070°00'3411.4 050 / 161025.5 2.7 0.5 3.9
2017-Apr-21 00:00N 47°12' W 070°36'3411.4 060 / 161024.6 4.7 1.6 6.0
2017-Apr-20 21:00N 46°48' W 071°12'0 0.0 050 / 111024.3 6.1 1.7
2017-Apr-20 18:00N 46°48' W 071°12'0 0.0 060 / 101023.8 6.9 2.3
2017-Apr-20 15:00N 46°48' W 071°12'0 0.0 050 / 71023.3 5.8 3.4
2017-Apr-20 12:00N 46°48' W 071°12'0 0.0 080 / 51022.0 4.1 4.0
2017-Apr-20 06:00N 46°48' W 071°12'0 0.0 030 / 71018.3 4.0 3.9
2017-Apr-20 03:00N 46°48' W 071°12'0 0.0 090 / 51018.5 4.1 4.0
2017-Apr-20 00:00N 46°48' W 071°12'0 0.0 170 / 51019.5 6.2 4.4
2017-Apr-19 21:00N 46°48' W 071°12'0 0.0 180 / 71020.6 9.8 2.8
2017-Apr-19 18:00N 46°48' W 071°12'0 0.0 150 / 101022.4 11.6 1.0
2017-Apr-19 15:00N 46°48' W 071°12'0 0.0 070 / 91026.8 5.5-0.0
2017-Apr-19 12:00N 46°48' W 071°12'0 0.0 050 / 111030.2 2.4-0.4
2017-Apr-19 09:00N 46°48' W 071°12'0 0.0 050 / 91031.7 1.4-1.6
2017-Apr-19 06:00N 46°48' W 071°12'0 0.0 040 / 121032.6 1.3-2.3
2017-Apr-19 03:00N 46°48' W 071°12'0 0.0 050 / 131033.9 1.3-2.0 5.2
2017-Apr-19 00:00N 46°48' W 071°12'3411.4 080 / 121035.0 2.3-4.6 5.9
2017-Apr-18 21:00N 47°12' W 070°36'3110.5 360 / 81035.3 1.8-6.1 4.8
2017-Apr-18 18:00N 47°36' W 070°06'3612.0 060 / 171035.5 -0.6-4.8 3.3
2017-Apr-18 15:00N 48°06' W 069°36'4314.4 040 / 171035.1 -1.0-6.9 1.8
2017-Apr-18 12:00N 48°30' W 068°42'8 2.7 040 / 211032.2 -1.8-6.3 1.6
2017-Apr-18 09:00N 48°30' W 068°30'0 0.0 050 / 171028.5 -1.5-5.5
2017-Apr-18 06:00N 48°30' W 068°30'0 0.0 070 / 51026.2 -1.9-4.2
2017-Apr-18 03:00N 48°30' W 068°30'0 0.0 050 / 61024.4 -2.0-4.9
2017-Apr-18 00:00N 48°30' W 068°30'0 0.0 070 / 91022.0 -2.0-3.5
2017-Apr-17 21:00N 48°30' W 068°30'0 0.0 050 / 211018.8 -1.8-3.4
2017-Apr-17 18:00N 48°30' W 068°30'0 0.0 050 / 271016.1 -2.3-2.7
2017-Apr-17 15:00N 48°30' W 068°30'0 0.0 060 / 261012.6 -2.0-2.5
2017-Apr-17 12:00N 48°30' W 068°30'   050 / 261010.8 -1.6-1.7
Track history (hours):
 
Tides and Currents Weather Stations Pressure Air Temp Water Temp Dewpoint Dewpoint Depression Visibility Wind Speed Wind Dir Waves Ship Positions

Maria Desgagnes

Last reported at 2017-Apr-27 12:00 UTC. Time now 2017-Apr-27 14:59 UTC.
Position N 47°36' W 070°06'.

Length 120 m; draft 7.9 m.

Type: Ship. MMSI: 316285000.

Wind from 050 at 15 knots

Barometer 1016.9 mb
Air temperature 3.9 ° C
Dewpoint 3.8 ° C
Water temperature 3.6 ° C

Date/timePositionNaut miles runAvg speedWind from/ knotsBaromVisibWave heightAir tempDewpointWater temp
2017-Apr-27 12:00N 47°36' W 070°06'4113.7 050 / 151016.9 3.9 3.8 3.6
2017-Apr-27 09:00N 48°12' W 069°36'4013.3 030 / 271016.2 5.3 5.2 2.6
2017-Apr-27 06:00N 48°36' W 068°48'4013.3 050 / 231017.0 3.6 3.5 3.3
2017-Apr-27 03:00N 48°54' W 067°54'4113.6 060 / 201018.4 2.9 2.8 2.8
2017-Apr-27 00:00N 49°24' W 067°12'3913.1 360 / 121018.8 1.5 1.5 1.4
2017-Apr-26 21:00N 50°00' W 066°48'0 0.0 090 / 21018.0 2.6 2.5
2017-Apr-26 18:00N 50°00' W 066°48'0 0.0 090 / 61018.5 1.6 1.5
2017-Apr-26 15:00N 50°00' W 066°48'0 0.0 070 / 71020.0 1.0 0.9
2017-Apr-26 12:00N 50°00' W 066°48'0 0.0 070 / 61021.5 -0.1-0.3
2017-Apr-26 09:00N 50°00' W 066°48'0 0.0 030 / 61022.2 -1.1-3.3 1.1
2017-Apr-26 06:00N 50°00' W 066°48'0 0.0 030 / 121024.7 -0.8-4.8
2017-Apr-26 03:00N 50°00' W 066°48'0 0.0 050 / 71027.6 -0.1-3.7
2017-Apr-26 00:00N 50°00' W 066°48'0 0.0 070 / 51028.5 -0.0-6.1
2017-Apr-25 21:00N 50°00' W 066°48'20 6.7 190 / 61029.7 0.2-7.6
2017-Apr-25 18:00N 50°06' W 066°18'4214.1 230 / 161030.3 -1.1-8.9 1.1
2017-Apr-25 15:00N 50°06' W 065°12'3812.8 270 / 211030.3 -3.4-11.6 0.7
2017-Apr-25 12:00N 50°06' W 064°12'3511.5 290 / 161028.5 -4.5-14.1 0.3
2017-Apr-25 09:00N 50°06' W 063°18'3110.5 300 / 281023.9 -3.7-14.2 0.1
2017-Apr-25 06:00N 50°00' W 062°30'28 9.2 310 / 251021.7 -2.4-11.7-0.0
2017-Apr-25 03:00N 49°54' W 061°48'17 5.6 300 / 261021.0 -1.3-11.6 0.1
2017-Apr-25 00:00N 49°42' W 061°30'24 8.0 290 / 341018.9 -1.9-10.6 0.4
2017-Apr-24 21:00N 49°36' W 060°54'4113.6 300 / 291015.7 -1.4-7.4 0.3
2017-Apr-24 18:00N 49°24' W 059°54'4013.2 280 / 261014.3 -0.6-6.2 0.2
2017-Apr-24 15:00N 49°18' W 058°54'2212.4 280 / 191014.2 1.5-1.0 1.1
2017-Apr-24 13:12N 49°10' W 058°23'413.5
2017-Apr-24 12:56N 49°08' W 058°18'613.5
2017-Apr-24 12:30N 49°04' W 058°11'612.3
2017-Apr-24 12:00N 48°60' W 058°05'6399.0
2017-Apr-24 12:00N 48°54' W 058°06'510.7 130 / 111014.4 2.7-0.5 2.3
2017-Apr-24 11:30N 48°58' W 058°01'0 0.0
2017-Apr-24 11:00N 48°58' W 058°01'4 1.9
2017-Apr-24 09:00N 48°54' W 058°00'0 0.0 200 / 91014.2 0.5-1.4
2017-Apr-24 06:00N 48°54' W 058°00'0 0.0 250 / 51014.1 0.8-1.8
2017-Apr-24 03:00N 48°54' W 058°00'4 1.4 240 / 51013.3 1.0-1.5
2017-Apr-24 00:11N 48°58' W 058°01'0 0.0
2017-Apr-24 00:00N 48°58' W 058°01'4269.6
2017-Apr-24 00:00N 48°54' W 058°00'4 8.0 320 / 61012.4 1.8 0.1 0.5
2017-Apr-23 23:30N 48°58' W 058°01'0 1.0
2017-Apr-23 23:00N 48°58' W 058°00'5 9.6
2017-Apr-23 22:31N 49°01' W 058°06'4 8.7
2017-Apr-23 22:00N 49°04' W 058°10'713.7
2017-Apr-23 21:31N 49°08' W 058°19'510.0
2017-Apr-23 21:00N 49°12' W 058°24'4013.2 310 / 31011.2 1.3 0.5 1.5
2017-Apr-23 18:00N 48°48' W 059°12'3913.1 350 / 71011.5 1.0 0.6 1.8
2017-Apr-23 15:00N 48°12' W 059°36'4314.3 080 / 41011.8 1.1 1.0 1.7
2017-Apr-23 12:00N 47°30' W 059°48'4214.1 320 / 11012.3 -0.0-0.1 1.6
2017-Apr-23 09:00N 46°48' W 059°54'44 7.3 040 / 61011.8 -0.2-0.3 1.4
2017-Apr-23 03:00N 46°06' W 060°12'0 0.0 150 / 21016.4 1.8-1.1
2017-Apr-23 00:00N 46°06' W 060°12'0 0.0 050 / 21017.7 1.8-0.9
2017-Apr-22 21:00N 46°06' W 060°12'18 6.2 070 / 51018.8 3.0-0.6 4.0
2017-Apr-22 18:00N 46°24' W 060°06'4314.3 030 / 41020.1 1.2 0.1 1.0
2017-Apr-22 15:00N 47°06' W 060°18'4113.8 280 / 11021.8 1.5-0.7 1.3
2017-Apr-22 12:00N 47°42' W 060°48'3812.8 130 / 41022.8 0.9-0.8 0.6
2017-Apr-22 09:00N 48°12' W 061°24'4013.4 090 / 121022.1 0.5-0.4 1.0
2017-Apr-22 06:00N 48°30' W 062°18'4013.2 080 / 111023.1 0.4-0.9 1.5
2017-Apr-22 03:00N 48°54' W 063°06'3612.1 080 / 81024.9 1.7-1.9 1.5
2017-Apr-22 00:00N 49°12' W 063°54'4013.2 080 / 41025.6 0.9-0.3 1.6
2017-Apr-21 21:00N 49°18' W 064°54'4314.5 120 / 141025.0 1.3-1.1 2.3
2017-Apr-21 18:00N 49°24' W 066°00'3712.4 080 / 221024.0 0.3-1.0 1.8
2017-Apr-21 15:00N 49°12' W 066°54'4314.4 060 / 201025.2 0.5-0.4 2.2
2017-Apr-21 12:00N 48°54' W 067°54'3612.1 090 / 161026.1 0.2-0.4 2.4
2017-Apr-21 09:00N 48°36' W 068°42'4013.3 080 / 151025.0 0.5-0.3 2.7
2017-Apr-21 06:00N 48°12' W 069°30'4113.7 040 / 111025.7 0.9-0.3 2.6
2017-Apr-21 03:00N 47°36' W 070°00'3411.4 050 / 161025.5 2.7 0.5 3.9
2017-Apr-21 00:00N 47°12' W 070°36'3411.4 060 / 161024.6 4.7 1.6 6.0
2017-Apr-20 21:00N 46°48' W 071°12'0 0.0 050 / 111024.3 6.1 1.7
2017-Apr-20 18:00N 46°48' W 071°12'0 0.0 060 / 101023.8 6.9 2.3
2017-Apr-20 15:00N 46°48' W 071°12'0 0.0 050 / 71023.3 5.8 3.4
2017-Apr-20 12:00N 46°48' W 071°12'0 0.0 080 / 51022.0 4.1 4.0
2017-Apr-20 06:00N 46°48' W 071°12'0 0.0 030 / 71018.3 4.0 3.9
2017-Apr-20 03:00N 46°48' W 071°12'0 0.0 090 / 51018.5 4.1 4.0
2017-Apr-20 00:00N 46°48' W 071°12'0 0.0 170 / 51019.5 6.2 4.4
2017-Apr-19 21:00N 46°48' W 071°12'0 0.0 180 / 71020.6 9.8 2.8
2017-Apr-19 18:00N 46°48' W 071°12'0 0.0 150 / 101022.4 11.6 1.0
2017-Apr-19 15:00N 46°48' W 071°12'0 0.0 070 / 91026.8 5.5-0.0
2017-Apr-19 12:00N 46°48' W 071°12'0 0.0 050 / 111030.2 2.4-0.4
2017-Apr-19 09:00N 46°48' W 071°12'0 0.0 050 / 91031.7 1.4-1.6
2017-Apr-19 06:00N 46°48' W 071°12'0 0.0 040 / 121032.6 1.3-2.3
2017-Apr-19 03:00N 46°48' W 071°12'0 0.0 050 / 131033.9 1.3-2.0 5.2
2017-Apr-19 00:00N 46°48' W 071°12'3411.4 080 / 121035.0 2.3-4.6 5.9
2017-Apr-18 21:00N 47°12' W 070°36'3110.5 360 / 81035.3 1.8-6.1 4.8
2017-Apr-18 18:00N 47°36' W 070°06'3612.0 060 / 171035.5 -0.6-4.8 3.3
2017-Apr-18 15:00N 48°06' W 069°36'4314.4 040 / 171035.1 -1.0-6.9 1.8
2017-Apr-18 12:00N 48°30' W 068°42'8 2.7 040 / 211032.2 -1.8-6.3 1.6
2017-Apr-18 09:00N 48°30' W 068°30'0 0.0 050 / 171028.5 -1.5-5.5
2017-Apr-18 06:00N 48°30' W 068°30'0 0.0 070 / 51026.2 -1.9-4.2
2017-Apr-18 03:00N 48°30' W 068°30'0 0.0 050 / 61024.4 -2.0-4.9
2017-Apr-18 00:00N 48°30' W 068°30'0 0.0 070 / 91022.0 -2.0-3.5
2017-Apr-17 21:00N 48°30' W 068°30'0 0.0 050 / 211018.8 -1.8-3.4
2017-Apr-17 18:00N 48°30' W 068°30'0 0.0 050 / 271016.1 -2.3-2.7
2017-Apr-17 15:00N 48°30' W 068°30'0 0.0 060 / 261012.6 -2.0-2.5
2017-Apr-17 12:00N 48°30' W 068°30'   050 / 261010.8 -1.6-1.7

Dump ship's entire track history